Aérodrome :
LOGIN :

S'inscrire | Disclaimer

   EN    FR    IT 

 










Légende :    VFR   VFR Marginal   IFR   IFR Intensif   IFR Très Intensif
Visi : 
Plafond : 
>= 8 km
>= 3000ft
5 à 8 km
1000 à 3000 ft
1500m à 5 km
500 à 1000 ft
800 à 1500m
200 à 500 ft
< 800m
< 200 ft
Symboles :   Orages  Brouillard  Fortes neiges  Fortes précipitations  Vent > 20 kt
SIGMETs :   Divers  Orages  Givrage  Turbulence  Onde Orograph.  Cendres Volcan.







- Altitude de l'aérodrome : 276 ft
- Code IATA : RBA


GMME - Rabat

DERNIER METAR :
  • 240100Z 18005KT 120V220 9999 SCT026 SCT090 20/04 Q1013 NOSIG

METARs EXPIRÉS :
  • 240030Z 18008KT 8000 SCT026 SCT090 20/03 Q1013 NOSIG
  • 240000Z 17004KT 080V220 8000 SCT026 SCT090 19/05 Q1013 NOSIG
  • 232330Z 00000KT 8000 SCT026 SCT090 15/07 Q1013 NOSIG
  • 232300Z 10001KT 8000 SCT026 BKN090 16/07 Q1014 NOSIG
  • 232230Z 12003KT 070V140 8000 SCT026 BKN090 18/07 Q1014 NOSIG

TAF TAF GMME
Valide du 24 à 00h jusqu'au 25 à 06h UTC


232300Z 2400/2506 VRB02KT 6000 SCT020 BKN090
PROB30
TEMPO 2402/2406 -RA SCT015 BKN020
BECMG 2408/2412 36006KT 8000 NSW NSC
TEMPO 2412/2418 36012KT CAVOK
Pas de NOTAMs connus pour ce terrain.
1 SIGMET publié pour la FIR Casablanca (GMMM) :
 
Orages noyés dans la masse
GMMM SIGMET 05 VALID 232245/240245 GMMC
GMMM CASABLANCA FIR EMBD TS FCST WI N3512 W00319 - N3401 W00716 - N3 155 W00634 - N3435 W00204 TOP FL320 MOV NE NC=



MET'MAP, la Météo Aéronautique d'un coup d'oeil ! - Copyright ORBIFLY Décembre 2007 - Disclaimer

ORBIFLY MET'MAP TEAM :

Programmation & Développement : Alexandra Zaïnal
Conception & Développement : Baudouin d'Aumeries
Co-Programmation & Développement : Marc-Olivier Méhu
Soutien technique & logistique : Manuel Goepfert

Contact : metmap@orbifly.com




SOURCES & CREDITS :

   NOAA